createdAt,value
2018-07-22T00:02:19.552Z,99580.00
2018-07-22T00:04:48.740Z,99575.00
2018-07-22T00:07:17.953Z,99579.00
2018-07-22T00:09:47.115Z,99579.00
2018-07-22T00:12:16.135Z,99578.00
2018-07-22T00:14:45.231Z,99574.00
2018-07-22T00:17:14.507Z,99575.00
2018-07-22T00:19:43.596Z,99577.00
2018-07-22T00:22:12.677Z,99576.00
2018-07-22T00:24:41.752Z,99572.00
2018-07-22T00:27:10.971Z,99576.00
2018-07-22T00:29:40.033Z,99578.00
2018-07-22T00:32:09.323Z,99576.00
2018-07-22T00:34:38.760Z,99575.00
2018-07-22T00:37:07.848Z,99571.00
2018-07-22T00:39:36.916Z,99574.00
2018-07-22T00:42:06.164Z,99579.00
2018-07-22T00:44:35.778Z,99571.00
2018-07-22T00:47:04.872Z,99581.00
2018-07-22T00:49:33.902Z,99577.00
2018-07-22T00:52:02.937Z,99573.00
2018-07-22T00:54:32.005Z,99574.00
2018-07-22T00:57:01.158Z,99566.00
2018-07-22T00:59:30.384Z,99565.00
2018-07-22T01:01:59.517Z,99564.00
2018-07-22T01:04:28.554Z,99562.00
2018-07-22T01:06:57.591Z,99563.00
2018-07-22T01:09:26.664Z,99565.00
2018-07-22T01:11:55.911Z,99565.00
2018-07-22T01:14:25.205Z,99565.00
2018-07-22T01:16:54.748Z,99567.00
2018-07-22T01:19:23.870Z,99566.00
2018-07-22T01:21:52.935Z,99577.00
2018-07-22T01:24:22.054Z,99576.00
2018-07-22T01:26:51.106Z,99576.00
2018-07-22T01:29:20.217Z,99584.00
2018-07-22T01:31:49.275Z,99578.00
2018-07-22T01:34:18.375Z,99576.00
2018-07-22T01:36:47.424Z,99572.00
2018-07-22T01:39:16.466Z,99578.00
2018-07-22T01:41:45.559Z,99573.00
2018-07-22T01:44:14.624Z,99574.00
2018-07-22T01:46:43.757Z,99569.00
2018-07-22T01:49:12.995Z,99576.00
2018-07-22T01:51:42.956Z,99577.00
2018-07-22T01:54:13.185Z,99571.00
2018-07-22T01:56:43.259Z,99576.00
2018-07-22T01:59:12.964Z,99574.00
2018-07-22T02:01:43.033Z,99575.00
2018-07-22T02:04:12.003Z,99574.00
2018-07-22T02:06:41.064Z,99575.00
2018-07-22T02:09:11.220Z,99574.00
2018-07-22T02:11:40.592Z,99571.00
2018-07-22T02:14:09.875Z,99577.00
2018-07-22T02:16:38.903Z,99576.00
2018-07-22T02:19:07.964Z,99576.00
2018-07-22T02:21:36.976Z,99578.00
2018-07-22T02:24:05.961Z,99576.00
2018-07-22T02:26:34.947Z,99578.00
2018-07-22T02:29:03.930Z,99579.00
2018-07-22T02:31:32.922Z,99587.00
2018-07-22T02:34:01.936Z,99587.00
2018-07-22T02:36:30.980Z,99589.00
2018-07-22T02:39:00.040Z,99592.00
2018-07-22T02:41:29.099Z,99593.00
2018-07-22T02:43:59.801Z,99596.00
2018-07-22T02:46:29.150Z,99595.00
2018-07-22T02:48:58.152Z,99594.00
2018-07-22T02:51:27.313Z,99596.00
2018-07-22T02:53:56.378Z,99593.00
2018-07-22T02:56:25.504Z,99597.00
2018-07-22T02:58:54.570Z,99595.00
2018-07-22T03:01:23.655Z,99597.00
2018-07-22T03:03:52.760Z,99598.00
2018-07-22T03:06:21.820Z,99599.00
2018-07-22T03:08:50.977Z,99599.00
2018-07-22T03:11:20.075Z,99603.00
2018-07-22T03:13:49.199Z,99604.00
2018-07-22T03:16:18.264Z,99606.00
2018-07-22T03:18:47.380Z,99610.00
2018-07-22T03:21:16.488Z,99610.00
2018-07-22T03:23:45.608Z,99609.00
2018-07-22T03:26:14.755Z,99611.00
2018-07-22T03:28:43.969Z,99610.00
2018-07-22T03:31:13.140Z,99610.00
2018-07-22T03:33:43.195Z,99612.00
2018-07-22T03:36:12.413Z,99617.00
2018-07-22T03:38:41.622Z,99610.00
2018-07-22T03:41:10.876Z,99615.00
2018-07-22T03:43:40.140Z,99618.00
2018-07-22T03:46:09.698Z,99627.00
2018-07-22T03:48:38.888Z,99627.00
2018-07-22T03:51:07.956Z,99629.00
2018-07-22T03:53:37.292Z,99630.00
2018-07-22T03:56:06.360Z,99633.00
2018-07-22T04:08:33.361Z,99630.00
2018-07-22T04:11:02.465Z,99636.00
2018-07-22T04:13:31.536Z,99638.00
2018-07-22T04:16:00.580Z,99638.00
2018-07-22T04:18:29.632Z,99637.00
2018-07-22T04:20:58.728Z,99648.00
2018-07-22T04:23:27.766Z,99655.00
2018-07-22T04:25:56.874Z,99656.00
2018-07-22T04:28:25.908Z,99655.00
2018-07-22T04:30:54.968Z,99653.00
2018-07-22T04:33:24.047Z,99651.00
2018-07-22T04:35:53.133Z,99662.00
2018-07-22T04:38:22.254Z,99663.00
2018-07-22T04:40:51.617Z,99667.00
2018-07-22T04:43:20.648Z,99670.00
2018-07-22T04:45:49.801Z,99668.00
2018-07-22T04:48:18.897Z,99672.00
2018-07-22T04:50:48.284Z,99678.00
2018-07-22T04:53:18.905Z,99675.00
2018-07-22T04:55:48.143Z,99681.00
2018-07-22T04:58:17.331Z,99683.00
2018-07-22T05:00:46.871Z,99682.00
2018-07-22T05:03:16.447Z,99678.00
2018-07-22T05:05:46.153Z,99682.00
2018-07-22T05:08:15.873Z,99680.00
2018-07-22T05:10:45.259Z,99676.00
2018-07-22T05:13:14.656Z,99682.00
2018-07-22T05:15:45.531Z,99683.00
2018-07-22T05:18:14.940Z,99678.00
2018-07-22T05:20:44.427Z,99684.00
2018-07-22T05:23:13.996Z,99681.00
2018-07-22T05:25:44.446Z,99681.00
2018-07-22T05:28:16.069Z,99682.00
2018-07-22T05:30:46.027Z,99677.00
2018-07-22T05:33:16.060Z,99674.00
2018-07-22T05:35:45.721Z,99678.00
2018-07-22T05:38:15.222Z,99684.00
2018-07-22T05:40:45.129Z,99683.00
2018-07-22T05:43:14.285Z,99692.00
2018-07-22T05:45:43.384Z,99691.00
2018-07-22T05:48:12.607Z,99693.00
2018-07-22T05:50:41.920Z,99699.00
2018-07-22T05:53:11.204Z,99699.00
2018-07-22T05:55:40.150Z,99702.00
2018-07-22T05:58:09.406Z,99708.00
2018-07-22T06:00:39.308Z,99704.00
2018-07-22T06:03:08.564Z,99705.00
2018-07-22T06:05:37.716Z,99708.00
2018-07-22T06:08:07.300Z,99711.00
2018-07-22T06:10:36.455Z,99714.00
2018-07-22T06:13:06.069Z,99710.00
2018-07-22T06:15:35.232Z,99715.00
2018-07-22T06:18:05.264Z,99713.00
2018-07-22T06:20:34.407Z,99708.00
2018-07-22T06:23:03.460Z,99707.00
2018-07-22T06:25:32.619Z,99708.00
2018-07-22T06:28:01.745Z,99717.00
2018-07-22T06:30:30.864Z,99709.00
2018-07-22T06:32:59.988Z,99706.00
2018-07-22T06:35:29.096Z,99710.00
2018-07-22T06:37:58.196Z,99708.00
2018-07-22T06:40:27.313Z,99710.00
2018-07-22T06:42:56.431Z,99712.00
2018-07-22T06:45:25.300Z,99717.00
2018-07-22T06:47:54.597Z,99718.00
2018-07-22T06:50:23.793Z,99717.00
2018-07-22T06:52:53.045Z,99725.00
2018-07-22T06:55:22.190Z,99725.00
2018-07-22T06:57:51.553Z,99726.00
2018-07-22T07:00:20.626Z,99725.00
2018-07-22T07:02:49.668Z,99720.00
2018-07-22T07:05:18.788Z,99718.00
2018-07-22T07:07:47.801Z,99723.00
2018-07-22T07:10:17.525Z,99728.00
2018-07-22T07:12:46.860Z,99724.00
2018-07-22T07:15:15.929Z,99727.00
2018-07-22T07:17:45.873Z,99732.00
2018-07-22T07:20:14.973Z,99730.00
2018-07-22T07:22:44.180Z,99729.00
2018-07-22T07:25:13.869Z,99728.00
2018-07-22T07:27:42.971Z,99729.00
2018-07-22T07:30:12.156Z,99730.00
2018-07-22T07:32:41.242Z,99731.00
2018-07-22T07:35:10.325Z,99721.00
2018-07-22T07:37:39.889Z,99730.00
2018-07-22T07:40:09.115Z,99725.00
2018-07-22T07:42:39.084Z,99729.00
2018-07-22T07:45:08.334Z,99723.00
2018-07-22T07:47:37.532Z,99729.00
2018-07-22T07:50:06.785Z,99728.00
2018-07-22T07:52:35.838Z,99732.00
2018-07-22T07:55:04.974Z,99730.00
2018-07-22T07:57:34.071Z,99727.00
2018-07-22T08:00:03.267Z,99730.00
2018-07-22T08:02:32.364Z,99730.00
2018-07-22T08:05:01.457Z,99730.00
2018-07-22T08:07:30.539Z,99731.00
2018-07-22T08:09:59.684Z,99737.00
2018-07-22T08:12:28.830Z,99734.00
2018-07-22T08:14:58.025Z,99737.00
2018-07-22T08:17:27.172Z,99736.00
2018-07-22T08:19:56.327Z,99736.00
2018-07-22T08:22:26.230Z,99729.00
2018-07-22T08:24:56.367Z,99732.00
2018-07-22T08:27:25.557Z,99727.00
2018-07-22T08:29:54.724Z,99735.00
2018-07-22T08:32:23.859Z,99728.00
2018-07-22T08:34:52.981Z,99732.00
2018-07-22T08:37:22.069Z,99728.00
2018-07-22T08:39:51.030Z,99732.00
2018-07-22T08:42:20.255Z,99732.00
2018-07-22T08:44:49.519Z,99728.00
2018-07-22T08:47:18.661Z,99731.00
2018-07-22T08:49:47.808Z,99733.00
2018-07-22T08:52:16.876Z,99738.00
2018-07-22T08:54:46.787Z,99733.00
2018-07-22T08:57:16.615Z,99739.00
2018-07-22T08:59:46.675Z,99744.00
2018-07-22T09:02:15.780Z,99739.00
2018-07-22T09:04:44.943Z,99739.00
2018-07-22T09:07:14.073Z,99736.00
2018-07-22T09:09:43.256Z,99734.00
2018-07-22T09:12:12.788Z,99739.00
2018-07-22T09:14:42.680Z,99734.00
2018-07-22T09:17:12.285Z,99733.00
2018-07-22T09:19:41.617Z,99734.00
2018-07-22T09:22:10.795Z,99738.00
2018-07-22T09:24:40.432Z,99736.00
2018-07-22T09:27:10.093Z,99732.00
2018-07-22T09:29:39.363Z,99744.00
2018-07-22T09:32:09.560Z,99742.00
2018-07-22T09:34:39.549Z,99742.00
2018-07-22T09:37:09.237Z,99747.00
2018-07-22T09:39:38.642Z,99744.00
2018-07-22T09:42:08.553Z,99742.00
2018-07-22T09:44:37.717Z,99741.00
2018-07-22T09:47:06.912Z,99744.00
2018-07-22T09:49:36.211Z,99747.00
2018-07-22T09:52:06.289Z,99745.00
2018-07-22T09:54:35.455Z,99743.00
2018-07-22T09:57:04.935Z,99743.00
2018-07-22T09:59:34.499Z,99745.00
2018-07-22T10:02:03.865Z,99744.00
2018-07-22T10:04:33.122Z,99746.00
2018-07-22T10:07:02.545Z,99749.00
2018-07-22T10:09:32.374Z,99750.00
2018-07-22T10:12:01.688Z,99745.00
2018-07-22T10:14:31.004Z,99744.00
2018-07-22T10:17:01.409Z,99745.00
2018-07-22T10:19:31.995Z,99741.00
2018-07-22T10:22:01.541Z,99738.00
2018-07-22T10:24:30.949Z,99741.00
2018-07-22T10:27:00.070Z,99741.00
2018-07-22T10:29:29.332Z,99740.00
2018-07-22T10:31:58.516Z,99738.00
2018-07-22T10:34:27.800Z,99736.00
2018-07-22T10:36:56.881Z,99730.00
2018-07-22T10:39:26.848Z,99728.00
2018-07-22T10:41:56.251Z,99736.00
2018-07-22T10:44:25.598Z,99733.00
2018-07-22T10:46:54.833Z,99732.00
2018-07-22T10:49:23.997Z,99732.00
2018-07-22T10:51:54.024Z,99729.00
2018-07-22T10:54:23.247Z,99726.00
2018-07-22T10:56:52.527Z,99724.00
2018-07-22T10:59:21.764Z,99729.00
2018-07-22T11:01:51.040Z,99729.00
2018-07-22T11:04:20.289Z,99729.00
2018-07-22T11:06:49.400Z,99731.00
2018-07-22T11:09:18.530Z,99730.00
2018-07-22T11:11:47.709Z,99728.00
2018-07-22T11:14:17.516Z,99724.00
2018-07-22T11:16:46.581Z,99726.00
2018-07-22T11:19:15.930Z,99721.00
2018-07-22T11:21:45.347Z,99722.00
2018-07-22T11:24:14.563Z,99716.00
2018-07-22T11:26:43.715Z,99719.00
2018-07-22T11:29:12.997Z,99723.00
2018-07-22T11:31:42.353Z,99724.00
2018-07-22T11:34:11.710Z,99719.00
2018-07-22T11:36:40.901Z,99719.00
2018-07-22T11:39:14.031Z,99714.00
2018-07-22T11:41:43.133Z,99717.00
2018-07-22T11:44:12.787Z,99715.00
2018-07-22T11:46:41.857Z,99716.00
2018-07-22T11:49:11.129Z,99711.00
2018-07-22T11:51:39.955Z,99704.00
2018-07-22T11:54:09.411Z,99711.00
2018-07-22T11:56:38.584Z,99712.00
2018-07-22T11:59:07.790Z,99710.00
2018-07-22T12:01:36.965Z,99705.00
2018-07-22T12:04:06.598Z,99702.00
2018-07-22T12:06:35.764Z,99703.00
2018-07-22T12:09:07.622Z,99697.00
2018-07-22T12:11:36.949Z,99691.00
2018-07-22T12:14:06.210Z,99695.00
2018-07-22T12:16:35.376Z,99696.00
2018-07-22T12:19:04.581Z,99696.00
2018-07-22T12:21:33.843Z,99694.00
2018-07-22T12:24:03.067Z,99694.00
2018-07-22T12:26:32.220Z,99690.00
2018-07-22T12:29:02.274Z,99681.00
2018-07-22T12:31:31.402Z,99679.00
2018-07-22T12:34:00.536Z,99678.00
2018-07-22T12:36:29.848Z,99686.00
2018-07-22T12:38:59.038Z,99677.00
2018-07-22T12:41:28.145Z,99674.00
2018-07-22T12:43:57.348Z,99671.00
2018-07-22T12:46:26.894Z,99672.00
2018-07-22T12:48:56.041Z,99667.00
2018-07-22T12:51:25.227Z,99671.00
2018-07-22T12:53:54.376Z,99668.00
2018-07-22T12:56:23.461Z,99676.00
2018-07-22T12:58:53.545Z,99676.00
2018-07-22T13:01:22.697Z,99677.00
2018-07-22T13:03:51.802Z,99674.00
2018-07-22T13:06:20.865Z,99664.00
2018-07-22T13:08:50.053Z,99657.00
2018-07-22T13:11:19.260Z,99668.00
2018-07-22T13:13:48.417Z,99665.00
2018-07-22T13:16:17.524Z,99660.00
2018-07-22T13:18:46.886Z,99656.00
2018-07-22T13:21:16.017Z,99666.00
2018-07-22T13:23:46.267Z,99661.00
2018-07-22T13:26:15.390Z,99662.00
2018-07-22T13:28:44.644Z,99660.00
2018-07-22T13:31:13.745Z,99660.00
2018-07-22T13:33:42.892Z,99656.00
2018-07-22T13:36:12.245Z,99660.00
2018-07-22T13:38:41.755Z,99662.00
2018-07-22T13:41:10.922Z,99654.00
2018-07-22T13:43:40.166Z,99656.00
2018-07-22T13:46:09.395Z,99655.00
2018-07-22T13:48:38.606Z,99653.00
2018-07-22T13:51:07.997Z,99659.00
2018-07-22T13:53:38.049Z,99662.00
2018-07-22T13:56:08.299Z,99660.00
2018-07-22T13:58:37.582Z,99660.00
2018-07-22T14:01:06.985Z,99657.00
2018-07-22T14:03:36.151Z,99662.00
2018-07-22T14:06:05.264Z,99662.00
2018-07-22T14:08:34.516Z,99663.00
2018-07-22T14:11:04.323Z,99662.00
2018-07-22T14:13:33.485Z,99659.00
2018-07-22T14:16:02.708Z,99655.00
2018-07-22T14:18:31.881Z,99646.00
2018-07-22T14:21:01.040Z,99650.00
2018-07-22T14:23:30.447Z,99656.00
2018-07-22T14:25:59.739Z,99649.00
2018-07-22T14:28:28.997Z,99652.00
2018-07-22T14:30:58.755Z,99648.00
2018-07-22T14:33:27.902Z,99656.00
2018-07-22T14:35:58.387Z,99641.00
2018-07-22T14:38:27.655Z,99640.00
2018-07-22T14:40:56.936Z,99635.00
2018-07-22T14:43:26.007Z,99639.00
2018-07-22T14:45:55.078Z,99642.00
2018-07-22T14:48:24.706Z,99645.00
2018-07-22T14:50:53.812Z,99647.00
2018-07-22T14:53:22.956Z,99645.00
2018-07-22T14:55:52.181Z,99650.00
2018-07-22T14:58:21.252Z,99649.00
2018-07-22T15:00:50.430Z,99651.00
2018-07-22T15:03:19.597Z,99655.00
2018-07-22T15:05:48.736Z,99654.00
2018-07-22T15:08:17.913Z,99654.00
2018-07-22T15:10:47.174Z,99646.00
2018-07-22T15:13:16.332Z,99650.00
2018-07-22T15:15:45.590Z,99650.00
2018-07-22T15:18:14.940Z,99654.00
2018-07-22T15:20:44.161Z,99654.00
2018-07-22T15:23:13.373Z,99651.00
2018-07-22T15:25:42.574Z,99662.00
2018-07-22T15:28:11.951Z,99662.00
2018-07-22T15:30:41.167Z,99662.00
2018-07-22T15:33:11.716Z,99660.00
2018-07-22T15:35:41.396Z,99660.00
2018-07-22T15:38:10.805Z,99654.00
2018-07-22T15:40:39.994Z,99657.00
2018-07-22T15:43:09.198Z,99664.00
2018-07-22T15:45:38.802Z,99660.00
2018-07-22T15:48:08.063Z,99661.00
2018-07-22T15:50:37.254Z,99664.00
2018-07-22T15:53:06.442Z,99660.00
2018-07-22T15:55:35.716Z,99664.00
2018-07-22T15:58:05.307Z,99660.00
2018-07-22T16:00:34.504Z,99662.00
2018-07-22T16:03:03.689Z,99660.00
2018-07-22T16:05:32.882Z,99665.00
2018-07-22T16:08:02.078Z,99664.00
2018-07-22T16:10:31.263Z,99658.00
2018-07-22T16:13:01.344Z,99658.00
2018-07-22T16:15:30.524Z,99658.00
2018-07-22T16:17:59.720Z,99657.00
2018-07-22T16:20:28.903Z,99659.00
2018-07-22T16:22:58.140Z,99652.00
2018-07-22T16:25:27.255Z,99651.00
2018-07-22T16:27:56.513Z,99655.00
2018-07-22T16:30:25.655Z,99657.00
2018-07-22T16:32:54.779Z,99659.00
2018-07-22T16:35:24.008Z,99659.00
2018-07-22T16:37:52.912Z,99654.00
2018-07-22T16:40:22.104Z,99659.00
2018-07-22T16:42:51.253Z,99653.00
2018-07-22T16:45:20.355Z,99652.00
2018-07-22T16:47:49.497Z,99655.00
2018-07-22T16:50:18.739Z,99653.00
2018-07-22T16:52:47.905Z,99652.00
2018-07-22T16:55:17.104Z,99651.00
2018-07-22T16:57:46.261Z,99656.00
2018-07-22T17:00:15.439Z,99656.00
2018-07-22T17:02:44.735Z,99652.00
2018-07-22T17:05:13.927Z,99658.00
2018-07-22T17:07:43.004Z,99656.00
2018-07-22T17:10:12.352Z,99653.00
2018-07-22T17:12:42.840Z,99653.00
2018-07-22T17:15:12.018Z,99654.00
2018-07-22T17:17:41.186Z,99657.00
2018-07-22T17:20:10.406Z,99657.00
2018-07-22T17:22:39.609Z,99655.00
2018-07-22T17:25:12.687Z,99661.00
2018-07-22T17:27:42.753Z,99665.00
2018-07-22T17:30:12.275Z,99664.00
2018-07-22T17:32:42.420Z,99660.00
2018-07-22T17:35:11.620Z,99661.00
2018-07-22T17:37:44.254Z,99662.00
2018-07-22T17:40:15.756Z,99662.00
2018-07-22T17:42:45.134Z,99660.00
2018-07-22T17:45:18.712Z,99662.00
2018-07-22T17:47:48.098Z,99658.00
2018-07-22T17:50:17.498Z,99652.00
2018-07-22T17:52:46.897Z,99662.00
2018-07-22T17:55:19.627Z,99658.00
2018-07-22T17:57:49.027Z,99657.00
2018-07-22T18:00:19.412Z,99667.00
2018-07-22T18:02:57.394Z,99664.00
2018-07-22T18:05:28.983Z,99676.00
2018-07-22T18:07:58.110Z,99672.00
2018-07-22T18:10:30.452Z,99671.00
2018-07-22T18:13:02.252Z,99671.00
2018-07-22T18:15:34.534Z,99668.00
2018-07-22T18:18:06.299Z,99671.00
2018-07-22T18:20:36.100Z,99671.00
2018-07-22T18:23:08.404Z,99671.00
2018-07-22T18:25:40.276Z,99671.00
2018-07-22T18:28:09.917Z,99672.00
2018-07-22T18:30:43.971Z,99671.00
2018-07-22T18:33:13.871Z,99674.00
2018-07-22T18:35:43.839Z,99672.00
2018-07-22T18:38:15.975Z,99670.00
2018-07-22T18:40:45.925Z,99674.00
2018-07-22T18:43:18.406Z,99684.00
2018-07-22T18:45:50.805Z,99683.00
2018-07-22T18:48:26.804Z,99688.00
2018-07-22T18:51:12.671Z,99683.00
2018-07-22T18:53:45.588Z,99693.00
2018-07-22T18:56:18.625Z,99689.00
2018-07-22T18:58:49.708Z,99695.00
2018-07-22T19:01:24.449Z,99692.00
2018-07-22T19:04:06.509Z,99697.00
2018-07-22T19:06:36.644Z,99694.00
2018-07-22T19:09:14.324Z,99695.00
2018-07-22T19:11:47.865Z,99698.00
2018-07-22T19:14:18.649Z,99701.00
2018-07-22T19:16:51.637Z,99708.00
2018-07-22T19:19:22.761Z,99710.00
2018-07-22T19:21:53.532Z,99711.00
2018-07-22T19:24:24.285Z,99712.00
2018-07-22T19:26:54.278Z,99719.00
2018-07-22T19:29:24.022Z,99727.00
2018-07-22T19:31:53.757Z,99731.00
2018-07-22T19:34:24.148Z,99731.00
2018-07-22T19:36:54.392Z,99735.00
2018-07-22T19:39:23.794Z,99730.00
2018-07-22T19:41:55.367Z,99730.00
2018-07-22T19:44:27.234Z,99729.00
2018-07-22T19:46:56.595Z,99732.00
2018-07-22T19:49:26.359Z,99740.00
2018-07-22T19:51:59.645Z,99741.00
2018-07-22T19:54:32.491Z,99746.00
2018-07-22T19:57:01.989Z,99752.00
2018-07-22T19:59:33.481Z,99751.00
2018-07-22T20:02:03.574Z,99755.00
2018-07-22T20:04:33.759Z,99758.00
2018-07-22T20:07:09.836Z,99762.00
2018-07-22T20:09:40.777Z,99761.00
2018-07-22T20:12:10.586Z,99765.00
2018-07-22T20:14:39.852Z,99767.00
2018-07-22T20:17:09.829Z,99767.00
2018-07-22T20:19:39.865Z,99773.00
2018-07-22T20:22:09.263Z,99772.00
2018-07-22T20:24:38.770Z,99776.00
2018-07-22T20:27:08.069Z,99779.00
2018-07-22T20:29:37.292Z,99780.00
2018-07-22T20:32:06.450Z,99785.00
2018-07-22T20:34:35.564Z,99785.00
2018-07-22T20:37:04.749Z,99791.00
2018-07-22T20:39:35.123Z,99796.00
2018-07-22T20:42:04.581Z,99796.00
2018-07-22T20:44:33.766Z,99800.00
2018-07-22T20:47:03.057Z,99798.00
2018-07-22T20:49:32.326Z,99798.00
2018-07-22T20:52:01.574Z,99800.00
2018-07-22T20:54:30.760Z,99800.00
2018-07-22T20:56:59.868Z,99802.00
2018-07-22T20:59:29.647Z,99810.00
2018-07-22T21:01:58.656Z,99817.00
2018-07-22T21:04:27.830Z,99820.00
2018-07-22T21:06:56.842Z,99823.00
2018-07-22T21:09:25.848Z,99823.00
2018-07-22T21:13:17.480Z,99826.00
2018-07-22T21:15:47.215Z,99827.00
2018-07-22T21:18:16.223Z,99830.00
2018-07-22T21:20:46.000Z,99833.00
2018-07-22T21:23:15.031Z,99836.00
2018-07-22T21:25:44.024Z,99830.00
2018-07-22T21:28:13.068Z,99836.00
2018-07-22T21:30:42.271Z,99834.00
2018-07-22T21:33:11.324Z,99842.00
2018-07-22T21:35:40.425Z,99834.00
2018-07-22T21:38:09.493Z,99843.00
2018-07-22T21:40:38.538Z,99838.00
2018-07-22T21:43:08.195Z,99840.00
2018-07-22T21:45:37.516Z,99838.00
2018-07-22T21:48:06.690Z,99849.00
2018-07-22T21:50:35.692Z,99850.00
2018-07-22T21:53:04.683Z,99856.00
2018-07-22T21:55:33.741Z,99858.00
2018-07-22T21:58:02.789Z,99857.00
2018-07-22T22:00:37.623Z,99860.00
2018-07-22T22:03:06.919Z,99859.00
2018-07-22T22:05:36.789Z,99863.00
2018-07-22T22:08:05.953Z,99862.00
2018-07-22T22:10:35.036Z,99861.00
2018-07-22T22:13:04.180Z,99867.00
2018-07-22T22:15:33.917Z,99869.00
2018-07-22T22:18:05.229Z,99868.00
2018-07-22T22:20:34.403Z,99870.00
2018-07-22T22:23:03.520Z,99874.00
2018-07-22T22:25:33.462Z,99870.00
2018-07-22T22:28:02.607Z,99873.00
2018-07-22T22:30:31.695Z,99877.00
2018-07-22T22:33:00.823Z,99878.00
2018-07-22T22:35:29.900Z,99878.00
2018-07-22T22:37:59.039Z,99877.00
2018-07-22T22:40:28.231Z,99877.00
2018-07-22T22:42:57.299Z,99875.00
2018-07-22T22:45:26.432Z,99876.00
2018-07-22T22:47:55.491Z,99879.00
2018-07-22T22:50:24.335Z,99874.00
2018-07-22T22:52:53.376Z,99879.00
2018-07-22T22:55:23.115Z,99876.00
2018-07-22T22:58:09.843Z,99881.00
2018-07-22T23:00:38.885Z,99883.00
2018-07-22T23:03:08.747Z,99879.00
2018-07-22T23:05:37.858Z,99883.00
2018-07-22T23:08:06.869Z,99880.00
2018-07-22T23:10:35.944Z,99881.00
2018-07-22T23:13:05.369Z,99877.00
2018-07-22T23:15:34.401Z,99880.00
2018-07-22T23:18:04.036Z,99883.00
2018-07-22T23:20:33.149Z,99889.00
2018-07-22T23:23:02.183Z,99883.00
2018-07-22T23:25:31.254Z,99884.00
2018-07-22T23:28:00.243Z,99882.00
2018-07-22T23:30:29.244Z,99884.00
2018-07-22T23:32:58.443Z,99879.00
2018-07-22T23:35:27.457Z,99876.00
2018-07-22T23:37:56.460Z,99879.00
2018-07-22T23:40:25.447Z,99879.00
2018-07-22T23:43:01.001Z,99885.00
2018-07-22T23:45:30.116Z,99882.00
2018-07-22T23:48:00.439Z,99878.00
2018-07-22T23:50:29.675Z,99877.00
2018-07-22T23:52:58.733Z,99880.00
2018-07-22T23:55:27.671Z,99886.00
2018-07-22T23:57:56.890Z,99888.00
